sensor_id;sensor_type;location;lat;lon;timestamp;pressure;altitude;pressure_sealevel;temperature;humidity
59240;BME280;45010;53.640;10.578;2023-07-31T00:01:42;100228.41;;;26.56;42.67
59240;BME280;45010;53.640;10.578;2023-07-31T00:04:42;100217.19;;;26.54;42.53
59240;BME280;45010;53.640;10.578;2023-07-31T00:07:43;100211.81;;;26.54;42.57
59240;BME280;45010;53.640;10.578;2023-07-31T00:10:43;100222.78;;;26.52;42.63
59240;BME280;45010;53.640;10.578;2023-07-31T00:13:43;100213.94;;;26.52;42.60
59240;BME280;45010;53.640;10.578;2023-07-31T00:16:43;100198.16;;;26.50;42.86
59240;BME280;45010;53.640;10.578;2023-07-31T00:19:44;100203.22;;;26.52;42.46
59240;BME280;45010;53.640;10.578;2023-07-31T00:22:46;100207.78;;;26.51;42.86
59240;BME280;45010;53.640;10.578;2023-07-31T00:25:46;100194.69;;;26.50;42.58
59240;BME280;45010;53.640;10.578;2023-07-31T00:28:47;100192.00;;;26.50;42.82
59240;BME280;45010;53.640;10.578;2023-07-31T00:31:47;100193.06;;;26.49;42.68
59240;BME280;45010;53.640;10.578;2023-07-31T00:34:47;100185.28;;;26.47;42.39
59240;BME280;45010;53.640;10.578;2023-07-31T00:37:47;100179.94;;;26.47;42.81
59240;BME280;45010;53.640;10.578;2023-07-31T00:40:48;100175.41;;;26.48;42.80
59240;BME280;45010;53.640;10.578;2023-07-31T00:43:48;100182.63;;;26.47;42.40
59240;BME280;45010;53.640;10.578;2023-07-31T00:46:49;100189.03;;;26.46;42.42
59240;BME280;45010;53.640;10.578;2023-07-31T00:49:49;100161.44;;;26.35;42.77
59240;BME280;45010;53.640;10.578;2023-07-31T00:52:49;100186.63;;;26.44;42.51
59240;BME280;45010;53.640;10.578;2023-07-31T00:55:50;100179.66;;;26.43;42.56
59240;BME280;45010;53.640;10.578;2023-07-31T00:58:50;100172.41;;;26.39;42.72
59240;BME280;45010;53.640;10.578;2023-07-31T01:01:51;100185.00;;;26.43;42.50
59240;BME280;45010;53.640;10.578;2023-07-31T01:04:51;100151.50;;;26.30;42.81
59240;BME280;45010;53.640;10.578;2023-07-31T01:08:01;100163.03;;;26.36;42.87
59240;BME280;45010;53.640;10.578;2023-07-31T01:11:25;100165.75;;;26.41;42.48
59240;BME280;45010;53.640;10.578;2023-07-31T01:14:27;100163.03;;;26.36;42.52
59240;BME280;45010;53.640;10.578;2023-07-31T01:17:27;100163.31;;;26.40;42.87
59240;BME280;45010;53.640;10.578;2023-07-31T01:20:29;100157.97;;;26.40;42.47
59240;BME280;45010;53.640;10.578;2023-07-31T01:23:56;100151.81;;;26.39;42.84
59240;BME280;45010;53.640;10.578;2023-07-31T01:27:12;100150.22;;;26.38;42.46
59240;BME280;45010;53.640;10.578;2023-07-31T01:30:16;100135.19;;;26.32;42.58
59240;BME280;45010;53.640;10.578;2023-07-31T01:33:19;100145.94;;;26.37;42.53
59240;BME280;45010;53.640;10.578;2023-07-31T01:36:19;100136.31;;;26.36;42.92
59240;BME280;45010;53.640;10.578;2023-07-31T01:39:20;100133.63;;;26.36;42.54
59240;BME280;45010;53.640;10.578;2023-07-31T01:42:20;100130.97;;;26.36;42.90
59240;BME280;45010;53.640;10.578;2023-07-31T01:45:21;100136.31;;;26.36;42.52
59240;BME280;45010;53.640;10.578;2023-07-31T01:48:21;100124.00;;;26.35;42.36
59240;BME280;45010;53.640;10.578;2023-07-31T01:51:21;100127.72;;;26.34;43.00
59240;BME280;45010;53.640;10.578;2023-07-31T01:54:22;100120.75;;;26.33;42.57
59240;BME280;45010;53.640;10.578;2023-07-31T01:57:22;100101.41;;;26.21;42.71
59240;BME280;45010;53.640;10.578;2023-07-31T02:00:22;100119.97;;;26.32;42.88
59240;BME280;45010;53.640;10.578;2023-07-31T02:03:23;100119.16;;;26.32;42.60
59240;BME280;45010;53.640;10.578;2023-07-31T02:06:23;100108.47;;;26.32;42.42
59240;BME280;45010;53.640;10.578;2023-07-31T02:09:23;100101.53;;;26.31;42.64
59240;BME280;45010;53.640;10.578;2023-07-31T02:12:24;100101.53;;;26.31;42.55
59240;BME280;45010;53.640;10.578;2023-07-31T02:15:24;100092.69;;;26.30;42.69
59240;BME280;45010;53.640;10.578;2023-07-31T02:18:24;100086.53;;;26.30;42.49
59240;BME280;45010;53.640;10.578;2023-07-31T02:21:25;100081.63;;;26.22;42.79
59240;BME280;45010;53.640;10.578;2023-07-31T02:24:25;100090.00;;;26.30;42.45
59240;BME280;45010;53.640;10.578;2023-07-31T02:27:25;100095.63;;;26.29;42.57
59240;BME280;45010;53.640;10.578;2023-07-31T02:30:27;100087.63;;;26.29;42.49
59240;BME280;45010;53.640;10.578;2023-07-31T02:33:28;100085.97;;;26.28;42.56
59240;BME280;45010;53.640;10.578;2023-07-31T02:36:28;100083.31;;;26.28;42.32
59240;BME280;45010;53.640;10.578;2023-07-31T02:39:28;100091.31;;;26.28;42.40
59240;BME280;45010;53.640;10.578;2023-07-31T02:42:28;100087.03;;;26.27;42.68
59240;BME280;45010;53.640;10.578;2023-07-31T02:45:29;100079.03;;;26.27;42.85
59240;BME280;45010;53.640;10.578;2023-07-31T02:48:29;100078.25;;;26.26;42.78
59240;BME280;45010;53.640;10.578;2023-07-31T02:51:29;100072.91;;;26.26;42.57
59240;BME280;45010;53.640;10.578;2023-07-31T02:54:30;100076.59;;;26.25;42.59
59240;BME280;45010;53.640;10.578;2023-07-31T02:57:30;100075.81;;;26.25;42.54
59240;BME280;45010;53.640;10.578;2023-07-31T03:00:30;100075.81;;;26.25;42.78
59240;BME280;45010;53.640;10.578;2023-07-31T03:03:31;100062.38;;;26.19;42.87
59240;BME280;45010;53.640;10.578;2023-07-31T03:06:31;100062.38;;;26.19;42.46
59240;BME280;45010;53.640;10.578;2023-07-31T03:09:31;100045.50;;;26.09;42.92
59240;BME280;45010;53.640;10.578;2023-07-31T03:12:32;100068.88;;;26.24;42.97
59240;BME280;45010;53.640;10.578;2023-07-31T03:15:32;100070.72;;;26.23;42.94
59240;BME280;45010;53.640;10.578;2023-07-31T03:18:32;100071.53;;;26.24;42.87
59240;BME280;45010;53.640;10.578;2023-07-31T03:21:33;100063.53;;;26.24;42.87
59240;BME280;45010;53.640;10.578;2023-07-31T03:24:33;100061.88;;;26.23;42.65
59240;BME280;45010;53.640;10.578;2023-07-31T03:27:33;100056.53;;;26.23;43.01
59240;BME280;45010;53.640;10.578;2023-07-31T03:30:36;100044.22;;;26.22;43.01
59240;BME280;45010;53.640;10.578;2023-07-31T03:33:38;100044.22;;;26.22;42.73
59240;BME280;45010;53.640;10.578;2023-07-31T03:36:38;100044.22;;;26.22;42.69
59240;BME280;45010;53.640;10.578;2023-07-31T03:39:39;100038.88;;;26.22;42.59
59240;BME280;45010;53.640;10.578;2023-07-31T03:42:39;100043.44;;;26.21;42.95
59240;BME280;45010;53.640;10.578;2023-07-31T03:45:40;100018.53;;;26.15;42.84
59240;BME280;45010;53.640;10.578;2023-07-31T03:48:40;100022.31;;;26.19;42.82
59240;BME280;45010;53.640;10.578;2023-07-31T03:51:40;100013.47;;;26.19;42.58
59240;BME280;45010;53.640;10.578;2023-07-31T03:54:41;100020.44;;;26.20;42.76
59240;BME280;45010;53.640;10.578;2023-07-31T03:57:44;100031.91;;;26.21;42.73
59240;BME280;45010;53.640;10.578;2023-07-31T04:00:45;100014.75;;;26.06;42.95
59240;BME280;45010;53.640;10.578;2023-07-31T04:03:45;100041.25;;;26.18;42.77
59240;BME280;45010;53.640;10.578;2023-07-31T04:06:45;100039.41;;;26.18;42.61
59240;BME280;45010;53.640;10.578;2023-07-31T04:09:46;100036.72;;;26.18;43.13
59240;BME280;45010;53.640;10.578;2023-07-31T04:12:46;100032.47;;;26.17;42.86
59240;BME280;45010;53.640;10.578;2023-07-31T04:15:50;100019.06;;;26.12;43.00
59240;BME280;45010;53.640;10.578;2023-07-31T04:18:54;100027.13;;;26.17;43.12
59240;BME280;45010;53.640;10.578;2023-07-31T04:21:54;100029.78;;;26.17;42.97
59240;BME280;45010;53.640;10.578;2023-07-31T04:24:54;100026.28;;;26.17;42.62
59240;BME280;45010;53.640;10.578;2023-07-31T04:27:55;100020.94;;;26.17;42.82
59240;BME280;45010;53.640;10.578;2023-07-31T04:30:55;100020.13;;;26.16;43.01
59240;BME280;45010;53.640;10.578;2023-07-31T04:33:55;100014.78;;;26.16;43.03
59240;BME280;45010;53.640;10.578;2023-07-31T04:36:56;100007.84;;;26.15;43.04
59240;BME280;45010;53.640;10.578;2023-07-31T04:39:56;100014.25;;;26.14;43.06
59240;BME280;45010;53.640;10.578;2023-07-31T04:42:57;100011.31;;;26.16;42.81
59240;BME280;45010;53.640;10.578;2023-07-31T04:45:57;100002.50;;;26.15;43.04
59240;BME280;45010;53.640;10.578;2023-07-31T04:48:58;100007.84;;;26.15;42.86
59240;BME280;45010;53.640;10.578;2023-07-31T04:51:58;100005.44;;;26.14;42.73
59240;BME280;45010;53.640;10.578;2023-07-31T04:54:58;99978.38;;;26.00;42.96
59240;BME280;45010;53.640;10.578;2023-07-31T04:57:59;100006.22;;;26.14;43.00
59240;BME280;45010;53.640;10.578;2023-07-31T05:00:59;100000.88;;;26.14;42.86
59240;BME280;45010;53.640;10.578;2023-07-31T05:04:00;100003.56;;;26.14;43.15
59240;BME280;45010;53.640;10.578;2023-07-31T05:07:00;99999.28;;;26.13;42.85
59240;BME280;45010;53.640;10.578;2023-07-31T05:10:00;100005.44;;;26.14;42.82
59240;BME280;45010;53.640;10.578;2023-07-31T05:13:01;100004.63;;;26.13;42.68
59240;BME280;45010;53.640;10.578;2023-07-31T05:16:01;99991.28;;;26.13;42.95
59240;BME280;45010;53.640;10.578;2023-07-31T05:19:01;99981.09;;;26.05;43.05
59240;BME280;45010;53.640;10.578;2023-07-31T05:22:02;99993.94;;;26.13;43.10
59240;BME280;45010;53.640;10.578;2023-07-31T05:25:02;99977.88;;;26.08;42.71
59240;BME280;45010;53.640;10.578;2023-07-31T05:28:03;99990.19;;;26.14;42.94
59240;BME280;45010;53.640;10.578;2023-07-31T05:31:04;99993.13;;;26.13;43.13
59240;BME280;45010;53.640;10.578;2023-07-31T05:34:04;99992.34;;;26.12;43.37
59240;BME280;45010;53.640;10.578;2023-07-31T05:37:05;99977.91;;;26.13;42.88
59240;BME280;45010;53.640;10.578;2023-07-31T05:40:06;99988.59;;;26.13;43.09
59240;BME280;45010;53.640;10.578;2023-07-31T05:43:06;99985.94;;;26.13;43.05
59240;BME280;45010;53.640;10.578;2023-07-31T05:46:09;99976.06;;;26.14;43.22
59240;BME280;45010;53.640;10.578;2023-07-31T05:49:09;99979.50;;;26.14;43.01
59240;BME280;45010;53.640;10.578;2023-07-31T05:52:09;99965.63;;;26.12;43.30
59240;BME280;45010;53.640;10.578;2023-07-31T05:55:10;99960.25;;;26.07;43.29
59240;BME280;45010;53.640;10.578;2023-07-31T05:58:10;99968.28;;;26.12;43.22
59240;BME280;45010;53.640;10.578;2023-07-31T06:01:10;99961.06;;;26.13;43.41
59240;BME280;45010;53.640;10.578;2023-07-31T06:04:11;99954.09;;;26.12;43.20
59240;BME280;45010;53.640;10.578;2023-07-31T06:07:11;99952.22;;;26.07;43.16
59240;BME280;45010;53.640;10.578;2023-07-31T06:10:11;99958.66;;;26.11;43.49
59240;BME280;45010;53.640;10.578;2023-07-31T06:13:12;99962.94;;;26.12;43.33
59240;BME280;45010;53.640;10.578;2023-07-31T06:16:12;99964.00;;;26.11;43.88
59240;BME280;45010;53.640;10.578;2023-07-31T06:19:12;99954.94;;;26.12;43.66
59240;BME280;45010;53.640;10.578;2023-07-31T06:22:13;99956.53;;;26.13;43.78
59240;BME280;45010;53.640;10.578;2023-07-31T06:25:13;99958.13;;;26.14;44.28
59240;BME280;45010;53.640;10.578;2023-07-31T06:28:13;99949.00;;;26.10;44.02
59240;BME280;45010;53.640;10.578;2023-07-31T06:31:14;99952.28;;;26.17;44.09
59240;BME280;45010;53.640;10.578;2023-07-31T06:34:14;99946.94;;;26.17;43.88
59240;BME280;45010;53.640;10.578;2023-07-31T06:37:16;99941.06;;;26.21;43.99
59240;BME280;45010;53.640;10.578;2023-07-31T06:40:16;99946.38;;;26.15;43.79
59240;BME280;45010;53.640;10.578;2023-07-31T06:43:17;99957.09;;;26.21;43.89
59240;BME280;45010;53.640;10.578;2023-07-31T06:46:17;99964.84;;;26.22;43.92
59240;BME280;45010;53.640;10.578;2023-07-31T06:49:17;99965.66;;;26.23;44.09
59240;BME280;45010;53.640;10.578;2023-07-31T06:52:18;99958.22;;;26.25;44.25
59240;BME280;45010;53.640;10.578;2023-07-31T06:55:20;99966.75;;;26.27;43.90
59240;BME280;45010;53.640;10.578;2023-07-31T06:58:20;99951.50;;;26.22;44.00
59240;BME280;45010;53.640;10.578;2023-07-31T07:01:21;99961.41;;;26.27;44.20
59240;BME280;45010;53.640;10.578;2023-07-31T07:04:21;99948.88;;;26.27;43.94
59240;BME280;45010;53.640;10.578;2023-07-31T07:07:21;99949.66;;;26.28;43.74
59240;BME280;45010;53.640;10.578;2023-07-31T07:10:22;99948.63;;;26.29;44.00
59240;BME280;45010;53.640;10.578;2023-07-31T07:13:22;99944.88;;;26.30;44.19
59240;BME280;45010;53.640;10.578;2023-07-31T07:16:22;99919.13;;;26.13;43.90
59240;BME280;45010;53.640;10.578;2023-07-31T07:19:23;99949.16;;;26.31;44.22
59240;BME280;45010;53.640;10.578;2023-07-31T07:22:23;99954.50;;;26.31;43.73
59240;BME280;45010;53.640;10.578;2023-07-31T07:25:24;99954.25;;;26.32;43.59
59240;BME280;45010;53.640;10.578;2023-07-31T07:28:24;99955.03;;;26.33;44.10
59240;BME280;45010;53.640;10.578;2023-07-31T07:31:24;99959.31;;;26.34;44.05
59240;BME280;45010;53.640;10.578;2023-07-31T07:34:26;99958.25;;;26.35;43.68
59240;BME280;45010;53.640;10.578;2023-07-31T07:37:26;99963.59;;;26.35;43.88
59240;BME280;45010;53.640;10.578;2023-07-31T07:40:27;99926.06;;;26.14;43.79
59240;BME280;45010;53.640;10.578;2023-07-31T07:43:27;99962.53;;;26.36;43.56
59240;BME280;45010;53.640;10.578;2023-07-31T07:46:27;99966.81;;;26.37;44.16
59240;BME280;45010;53.640;10.578;2023-07-31T07:49:28;99966.81;;;26.37;44.36
59240;BME280;45010;53.640;10.578;2023-07-31T07:52:28;99964.94;;;26.38;43.81
59240;BME280;45010;53.640;10.578;2023-07-31T07:55:28;99963.06;;;26.38;44.09
59240;BME280;45010;53.640;10.578;2023-07-31T07:58:29;99956.13;;;26.37;44.22
59240;BME280;45010;53.640;10.578;2023-07-31T08:01:29;99960.41;;;26.38;43.88
59240;BME280;45010;53.640;10.578;2023-07-31T08:04:30;99945.41;;;26.32;43.88
59240;BME280;45010;53.640;10.578;2023-07-31T08:07:30;99955.31;;;26.37;43.94
59240;BME280;45010;53.640;10.578;2023-07-31T08:10:31;99953.44;;;26.37;43.94
59240;BME280;45010;53.640;10.578;2023-07-31T08:13:31;99952.91;;;26.35;43.92
59240;BME280;45010;53.640;10.578;2023-07-31T08:16:31;99949.16;;;26.36;44.05
59240;BME280;45010;53.640;10.578;2023-07-31T08:19:32;99933.13;;;26.36;44.03
59240;BME280;45010;53.640;10.578;2023-07-31T08:22:32;99930.47;;;26.36;44.01
59240;BME280;45010;53.640;10.578;2023-07-31T08:25:34;99897.50;;;26.20;44.46
59240;BME280;45010;53.640;10.578;2023-07-31T08:28:35;99922.44;;;26.36;44.28
59240;BME280;45010;53.640;10.578;2023-07-31T08:31:36;99910.94;;;26.36;44.84
59240;BME280;45010;53.640;10.578;2023-07-31T08:34:37;99906.41;;;26.36;44.47
59240;BME280;45010;53.640;10.578;2023-07-31T08:37:38;99906.41;;;26.36;44.77
59240;BME280;45010;53.640;10.578;2023-07-31T08:40:38;99908.25;;;26.36;44.85
59240;BME280;45010;53.640;10.578;2023-07-31T08:43:39;99902.09;;;26.30;44.80
59240;BME280;45010;53.640;10.578;2023-07-31T08:46:40;99912.81;;;26.35;44.45
59240;BME280;45010;53.640;10.578;2023-07-31T08:49:41;99908.50;;;26.34;44.44
59240;BME280;45010;53.640;10.578;2023-07-31T08:52:43;99886.06;;;26.30;44.77
59240;BME280;45010;53.640;10.578;2023-07-31T08:55:44;99881.47;;;26.20;44.48
59240;BME280;45010;53.640;10.578;2023-07-31T08:58:45;99899.72;;;26.34;44.69
59240;BME280;45010;53.640;10.578;2023-07-31T09:01:49;99897.03;;;26.34;44.87
59240;BME280;45010;53.640;10.578;2023-07-31T09:04:50;99896.22;;;26.33;44.32
59240;BME280;45010;53.640;10.578;2023-07-31T09:07:51;99864.34;;;26.16;44.35
59240;BME280;45010;53.640;10.578;2023-07-31T09:10:51;99880.19;;;26.33;44.58
59240;BME280;45010;53.640;10.578;2023-07-31T09:13:52;99855.78;;;26.14;44.80
59240;BME280;45010;53.640;10.578;2023-07-31T09:16:57;99877.50;;;26.28;44.44
59240;BME280;45010;53.640;10.578;2023-07-31T09:20:19;99873.22;;;26.32;44.83
59240;BME280;45010;53.640;10.578;2023-07-31T09:23:20;99879.66;;;26.31;44.91
59240;BME280;45010;53.640;10.578;2023-07-31T09:26:35;99876.97;;;26.31;44.77
59240;BME280;45010;53.640;10.578;2023-07-31T09:29:36;99873.78;;;26.29;44.81
59240;BME280;45010;53.640;10.578;2023-07-31T09:32:36;99873.78;;;26.29;45.02
59240;BME280;45010;53.640;10.578;2023-07-31T09:35:38;99868.44;;;26.29;44.82
59240;BME280;45010;53.640;10.578;2023-07-31T09:38:40;99857.72;;;26.29;44.97
59240;BME280;45010;53.640;10.578;2023-07-31T09:41:43;99856.91;;;26.28;44.96
59240;BME280;45010;53.640;10.578;2023-07-31T09:44:44;99860.41;;;26.29;44.81
59240;BME280;45010;53.640;10.578;2023-07-31T09:47:47;99851.56;;;26.28;44.86
59240;BME280;45010;53.640;10.578;2023-07-31T09:50:51;99850.75;;;26.28;45.25
59240;BME280;45010;53.640;10.578;2023-07-31T09:53:51;99847.81;;;26.29;45.42
59240;BME280;45010;53.640;10.578;2023-07-31T09:56:52;99839.56;;;26.31;45.48
59240;BME280;45010;53.640;10.578;2023-07-31T09:59:55;99849.16;;;26.32;45.42
59240;BME280;45010;53.640;10.578;2023-07-31T10:02:58;99839.00;;;26.34;45.21
59240;BME280;45010;53.640;10.578;2023-07-31T10:06:00;99833.66;;;26.34;45.35
59240;BME280;45010;53.640;10.578;2023-07-31T10:09:05;99832.06;;;26.33;45.46
59240;BME280;45010;53.640;10.578;2023-07-31T10:12:07;99832.34;;;26.37;45.38
59240;BME280;45010;53.640;10.578;2023-07-31T10:15:10;99793.81;;;26.22;45.40
59240;BME280;45010;53.640;10.578;2023-07-31T10:18:11;99825.66;;;26.39;45.74
59240;BME280;45010;53.640;10.578;2023-07-31T10:21:13;99794.91;;;26.26;45.65
59240;BME280;45010;53.640;10.578;2023-07-31T10:24:14;99805.09;;;26.40;46.04
59240;BME280;45010;53.640;10.578;2023-07-31T10:27:15;99805.88;;;26.40;46.07
59240;BME280;45010;53.640;10.578;2023-07-31T10:30:17;99777.53;;;26.29;45.91
59240;BME280;45010;53.640;10.578;2023-07-31T10:33:19;99794.13;;;26.36;45.53
59240;BME280;45010;53.640;10.578;2023-07-31T10:36:20;99795.72;;;26.42;45.63
59240;BME280;45010;53.640;10.578;2023-07-31T10:39:34;99794.66;;;26.43;45.62
59240;BME280;45010;53.640;10.578;2023-07-31T10:42:38;99797.31;;;26.38;45.91
59240;BME280;45010;53.640;10.578;2023-07-31T10:45:42;99796.25;;;26.44;45.47
59240;BME280;45010;53.640;10.578;2023-07-31T10:48:42;99794.09;;;26.46;45.42
59240;BME280;45010;53.640;10.578;2023-07-31T10:51:43;99788.75;;;26.46;45.74
59240;BME280;45010;53.640;10.578;2023-07-31T10:54:43;99792.00;;;26.49;45.62
59240;BME280;45010;53.640;10.578;2023-07-31T10:57:50;99792.00;;;26.49;45.74
59240;BME280;45010;53.640;10.578;2023-07-31T11:00:55;99781.28;;;26.49;45.78
59240;BME280;45010;53.640;10.578;2023-07-31T11:03:56;99784.50;;;26.51;45.51
59240;BME280;45010;53.640;10.578;2023-07-31T11:07:01;99775.41;;;26.52;45.72
59240;BME280;45010;53.640;10.578;2023-07-31T11:10:03;99781.56;;;26.52;45.37
59240;BME280;45010;53.640;10.578;2023-07-31T11:13:04;99764.44;;;26.48;45.53
59240;BME280;45010;53.640;10.578;2023-07-31T11:16:05;99767.94;;;26.54;45.25
59240;BME280;45010;53.640;10.578;2023-07-31T11:19:08;99749.72;;;26.45;45.49
59240;BME280;45010;53.640;10.578;2023-07-31T11:22:08;99771.13;;;26.56;45.19
59240;BME280;45010;53.640;10.578;2023-07-31T11:25:09;99770.06;;;26.57;45.57
59240;BME280;45010;53.640;10.578;2023-07-31T11:28:14;99756.16;;;26.50;45.40
59240;BME280;45010;53.640;10.578;2023-07-31T11:31:15;99757.75;;;26.51;45.61
59240;BME280;45010;53.640;10.578;2023-07-31T11:34:15;99758.28;;;26.58;45.60
59240;BME280;45010;53.640;10.578;2023-07-31T11:37:17;99767.38;;;26.57;45.35
59240;BME280;45010;53.640;10.578;2023-07-31T11:40:18;99763.91;;;26.56;45.71
59240;BME280;45010;53.640;10.578;2023-07-31T11:43:19;99751.06;;;26.53;45.53
59240;BME280;45010;53.640;10.578;2023-07-31T11:46:20;99769.78;;;26.58;45.67
59240;BME280;45010;53.640;10.578;2023-07-31T11:49:20;99765.25;;;26.59;45.44
59240;BME280;45010;53.640;10.578;2023-07-31T11:52:21;99764.19;;;26.60;45.46
59240;BME280;45010;53.640;10.578;2023-07-31T11:55:23;99759.91;;;26.59;45.75
59240;BME280;45010;53.640;10.578;2023-07-31T11:58:24;99758.84;;;26.60;45.57
59240;BME280;45010;53.640;10.578;2023-07-31T12:01:26;99756.16;;;26.60;45.32
59240;BME280;45010;53.640;10.578;2023-07-31T12:04:27;99763.09;;;26.61;45.62
59240;BME280;45010;53.640;10.578;2023-07-31T12:07:43;99750.81;;;26.55;45.49
59240;BME280;45010;53.640;10.578;2023-07-31T12:10:43;99747.06;;;26.56;45.35
59240;BME280;45010;53.640;10.578;2023-07-31T12:13:45;99775.41;;;26.62;45.24
59240;BME280;45010;53.640;10.578;2023-07-31T12:16:45;99758.28;;;26.58;45.42
59240;BME280;45010;53.640;10.578;2023-07-31T12:19:48;99761.75;;;26.64;45.43
59240;BME280;45010;53.640;10.578;2023-07-31T12:22:48;99759.63;;;26.66;45.37
59240;BME280;45010;53.640;10.578;2023-07-31T12:26:00;99751.34;;;26.62;44.79
59240;BME280;45010;53.640;10.578;2023-07-31T12:29:00;99758.28;;;26.68;44.94
59240;BME280;45010;53.640;10.578;2023-07-31T12:32:01;99757.47;;;26.68;44.85
59240;BME280;45010;53.640;10.578;2023-07-31T12:35:01;99748.66;;;26.62;45.23
59240;BME280;45010;53.640;10.578;2023-07-31T12:38:06;99745.97;;;26.67;44.87
59240;BME280;45010;53.640;10.578;2023-07-31T12:41:06;99747.56;;;26.68;45.34
59240;BME280;45010;53.640;10.578;2023-07-31T12:44:07;99744.38;;;26.66;44.88
59240;BME280;45010;53.640;10.578;2023-07-31T12:47:07;99736.88;;;26.68;45.08
59240;BME280;45010;53.640;10.578;2023-07-31T12:50:07;99736.88;;;26.68;45.13
59240;BME280;45010;53.640;10.578;2023-07-31T12:53:08;99727.25;;;26.62;44.84
59240;BME280;45010;53.640;10.578;2023-07-31T12:56:08;99730.72;;;26.68;45.16
59240;BME280;45010;53.640;10.578;2023-07-31T12:59:08;99730.47;;;26.69;44.79
59240;BME280;45010;53.640;10.578;2023-07-31T13:02:09;99725.66;;;26.71;45.26
59240;BME280;45010;53.640;10.578;2023-07-31T13:05:09;99721.09;;;26.72;45.06
59240;BME280;45010;53.640;10.578;2023-07-31T13:08:09;99713.88;;;26.72;45.07
59240;BME280;45010;53.640;10.578;2023-07-31T13:11:10;99698.63;;;26.68;45.27
59240;BME280;45010;53.640;10.578;2023-07-31T13:14:10;99707.47;;;26.73;45.27
59240;BME280;45010;53.640;10.578;2023-07-31T13:17:11;99709.06;;;26.75;44.81
59240;BME280;45010;53.640;10.578;2023-07-31T13:20:11;99694.09;;;26.68;44.93
59240;BME280;45010;53.640;10.578;2023-07-31T13:23:12;99709.31;;;26.78;44.73
59240;BME280;45010;53.640;10.578;2023-07-31T13:26:12;99704.78;;;26.79;45.23
59240;BME280;45010;53.640;10.578;2023-07-31T13:29:12;99709.06;;;26.80;45.16
59240;BME280;45010;53.640;10.578;2023-07-31T13:32:13;99701.03;;;26.80;44.80
59240;BME280;45010;53.640;10.578;2023-07-31T13:35:13;99678.59;;;26.65;45.00
59240;BME280;45010;53.640;10.578;2023-07-31T13:38:13;99700.50;;;26.78;45.00
59240;BME280;45010;53.640;10.578;2023-07-31T13:41:14;99696.19;;;26.77;45.21
59240;BME280;45010;53.640;10.578;2023-07-31T13:44:14;99673.50;;;26.69;45.16
59240;BME280;45010;53.640;10.578;2023-07-31T13:47:14;99688.72;;;26.79;45.44
59240;BME280;45010;53.640;10.578;2023-07-31T13:50:15;99684.97;;;26.80;45.30
59240;BME280;45010;53.640;10.578;2023-07-31T13:53:16;99686.56;;;26.81;45.39
59240;BME280;45010;53.640;10.578;2023-07-31T13:56:17;99681.22;;;26.81;45.57
59240;BME280;45010;53.640;10.578;2023-07-31T13:59:17;99679.63;;;26.80;45.50
59240;BME280;45010;53.640;10.578;2023-07-31T14:02:18;99680.69;;;26.79;44.97
59240;BME280;45010;53.640;10.578;2023-07-31T14:05:18;99681.78;;;26.78;45.05
59240;BME280;45010;53.640;10.578;2023-07-31T14:08:19;99674.81;;;26.77;45.43
59240;BME280;45010;53.640;10.578;2023-07-31T14:11:19;99668.41;;;26.78;45.10
59240;BME280;45010;53.640;10.578;2023-07-31T14:14:20;99668.41;;;26.78;45.07
59240;BME280;45010;53.640;10.578;2023-07-31T14:17:20;99674.81;;;26.77;45.50
59240;BME280;45010;53.640;10.578;2023-07-31T14:20:20;99668.09;;;26.79;45.00
59240;BME280;45010;53.640;10.578;2023-07-31T14:23:21;99659.31;;;26.79;45.33
59240;BME280;45010;53.640;10.578;2023-07-31T14:26:21;99665.16;;;26.81;44.96
59240;BME280;45010;53.640;10.578;2023-07-31T14:29:21;99647.28;;;26.76;45.24
59240;BME280;45010;53.640;10.578;2023-07-31T14:32:22;99658.22;;;26.80;45.30
59240;BME280;45010;53.640;10.578;2023-07-31T14:35:23;99658.22;;;26.80;44.96
59240;BME280;45010;53.640;10.578;2023-07-31T14:38:23;99660.38;;;26.78;45.00
59240;BME280;45010;53.640;10.578;2023-07-31T14:41:24;99644.84;;;26.80;45.14
59240;BME280;45010;53.640;10.578;2023-07-31T14:44:24;99647.53;;;26.80;45.41
59240;BME280;45010;53.640;10.578;2023-07-31T14:47:24;99639.19;;;26.92;45.02
59240;BME280;45010;53.640;10.578;2023-07-31T14:50:25;99627.97;;;26.95;45.12
59240;BME280;45010;53.640;10.578;2023-07-31T14:53:26;99642.44;;;26.83;45.35
59240;BME280;45010;53.640;10.578;2023-07-31T14:56:26;99640.56;;;26.79;45.27
59240;BME280;45010;53.640;10.578;2023-07-31T14:59:28;99649.13;;;26.81;45.39
59240;BME280;45010;53.640;10.578;2023-07-31T15:02:28;99627.72;;;26.81;45.33
59240;BME280;45010;53.640;10.578;2023-07-31T15:05:28;99636.25;;;26.83;45.08
59240;BME280;45010;53.640;10.578;2023-07-31T15:08:29;99631.47;;;26.85;44.97
59240;BME280;45010;53.640;10.578;2023-07-31T15:11:29;99625.03;;;26.86;45.29
59240;BME280;45010;53.640;10.578;2023-07-31T15:14:29;99624.22;;;26.85;45.17
59240;BME280;45010;53.640;10.578;2023-07-31T15:17:31;99625.03;;;26.86;45.29
59240;BME280;45010;53.640;10.578;2023-07-31T15:20:31;99609.78;;;26.86;45.22
59240;BME280;45010;53.640;10.578;2023-07-31T15:23:32;99599.88;;;26.87;44.69
59240;BME280;45010;53.640;10.578;2023-07-31T15:26:33;99606.31;;;26.86;45.00
59240;BME280;45010;53.640;10.578;2023-07-31T15:29:33;99602.56;;;26.82;44.60
59240;BME280;45010;53.640;10.578;2023-07-31T15:32:37;99601.47;;;26.88;44.58
59240;BME280;45010;53.640;10.578;2023-07-31T15:35:38;99614.84;;;26.88;44.81
59240;BME280;45010;53.640;10.578;2023-07-31T15:38:39;99587.63;;;26.76;44.89
59240;BME280;45010;53.640;10.578;2023-07-31T15:41:40;99619.13;;;26.89;44.90
59240;BME280;45010;53.640;10.578;2023-07-31T15:44:40;99601.47;;;26.88;44.53